Time;durP1;ratioP1;P1;durP2;ratioP2;P2;SDS_P1;SDS_P2;PMS_P1;PMS_P2;Temp;Humidity;BMP_temperature;BMP_pressure;BME280_temperature;BME280_humidity;BME280_pressure;Samples;Min_cycle;Max_cycle;Signal;HPM_P1;HPM_P2
2024/01/16 00:01:28;;;;;;;5.72;3.03;;;;;;;2.53;77.83;100892.28;5004989;28;20030;-62
2024/01/16 00:03:53;;;;;;;4.53;2.70;;;;;;;2.57;77.84;100895.47;5003303;28;20033;-63
2024/01/16 00:06:19;;;;;;;4.78;2.80;;;;;;;2.57;78.07;100900.94;5001430;28;20034;-62
2024/01/16 00:08:44;;;;;;;4.57;2.88;;;;;;;2.58;77.45;100906.22;5004805;28;20140;-63
2024/01/16 00:11:10;;;;;;;2.42;2.22;;;;;;;2.60;77.21;100895.06;5004582;28;20028;-63
2024/01/16 00:13:35;;;;;;;3.00;2.70;;;;;;;2.58;77.73;100906.22;5002509;28;20033;-62
2024/01/16 00:16:04;;;;;;;2.95;2.67;;;;;;;2.58;77.86;100908.97;5004737;28;20848;-63
2024/01/16 00:18:29;;;;;;;4.65;3.22;;;;;;;2.58;77.66;100911.69;5003149;28;20038;-62
2024/01/16 00:20:55;;;;;;;3.42;2.80;;;;;;;2.58;78.00;100906.22;5004471;28;20097;-62
2024/01/16 00:23:20;;;;;;;5.53;2.65;;;;;;;2.62;77.69;100912.16;5004335;28;20032;-63
2024/01/16 00:25:45;;;;;;;5.00;3.00;;;;;;;2.61;77.53;100911.31;5005082;28;20034;-63
2024/01/16 00:28:11;;;;;;;3.30;2.50;;;;;;;2.61;78.09;100905.81;5004993;28;20033;-61
2024/01/16 00:30:36;;;;;;;4.30;3.00;;;;;;;2.59;78.00;100907.91;5002825;28;20124;-60
2024/01/16 00:33:02;;;;;;;6.43;3.00;;;;;;;2.60;78.08;100914.25;5005237;28;20033;-60
2024/01/16 00:35:28;;;;;;;4.35;2.97;;;;;;;2.61;78.16;100907.72;5008036;28;20057;-60
2024/01/16 00:37:53;;;;;;;4.72;2.90;;;;;;;2.61;77.69;100905.81;5005062;28;20106;-60
2024/01/16 00:40:18;;;;;;;4.93;2.70;;;;;;;2.60;77.93;100915.09;5011220;28;20381;-60
2024/01/16 00:42:43;;;;;;;4.88;3.03;;;;;;;2.61;77.98;100925.00;4996530;28;20050;-60
2024/01/16 00:45:09;;;;;;;6.85;2.70;;;;;;;2.64;77.51;100924.63;4998583;28;20038;-60
2024/01/16 00:47:34;;;;;;;6.45;2.85;;;;;;;2.62;77.66;100918.47;5008014;28;20022;-59
2024/01/16 00:50:01;;;;;;;4.50;2.47;;;;;;;2.61;77.83;100915.94;5008562;28;20029;-60
2024/01/16 00:52:26;;;;;;;4.57;2.35;;;;;;;2.62;77.73;100912.16;5007442;28;20069;-60
2024/01/16 00:54:52;;;;;;;5.07;2.78;;;;;;;2.61;77.45;100911.31;5017324;28;20041;-60
2024/01/16 00:57:19;;;;;;;4.47;2.70;;;;;;;2.62;77.35;100907.50;5039780;28;20046;-60
2024/01/16 00:59:45;;;;;;;3.30;2.55;;;;;;;2.63;77.39;100906.50;5007738;28;20083;-60
2024/01/16 01:02:11;;;;;;;5.18;2.33;;;;;;;2.64;77.46;100901.84;5007992;28;20403;-60
2024/01/16 01:04:37;;;;;;;6.45;2.50;;;;;;;2.64;78.06;100907.34;5007657;28;20030;-60
2024/01/16 01:07:02;;;;;;;6.90;2.80;;;;;;;2.63;77.61;100913.84;5007408;28;20018;-60
2024/01/16 01:09:27;;;;;;;6.30;2.78;;;;;;;2.63;78.01;100914.72;5008395;28;20449;-60
2024/01/16 01:11:53;;;;;;;5.10;2.60;;;;;;;2.65;77.68;100912.59;5004883;28;20431;-59
2024/01/16 01:14:18;;;;;;;5.07;2.80;;;;;;;2.64;77.66;100915.56;4996884;28;20034;-60
2024/01/16 01:16:43;;;;;;;7.85;3.17;;;;;;;2.65;77.70;100923.56;4993622;28;20458;-59
2024/01/16 01:19:09;;;;;;;6.43;2.88;;;;;;;2.65;77.83;100918.09;4991876;28;20026;-59
2024/01/16 01:21:35;;;;;;;5.13;2.95;;;;;;;2.69;77.95;100918.53;5010776;28;20129;-59
2024/01/16 01:24:01;;;;;;;5.45;2.90;;;;;;;2.66;77.16;100914.28;5010842;28;20087;-60
2024/01/16 01:26:26;;;;;;;6.30;2.70;;;;;;;2.68;77.69;100916.84;5007861;28;20027;-60
2024/01/16 01:28:52;;;;;;;5.13;2.35;;;;;;;2.68;77.62;100904.00;5007394;28;20863;-59
2024/01/16 01:31:17;;;;;;;4.53;2.55;;;;;;;2.69;77.69;100907.56;5011286;28;20079;-59
2024/01/16 01:33:42;;;;;;;3.92;2.50;;;;;;;2.69;77.49;100908.41;5009905;28;20095;-59
2024/01/16 01:36:08;;;;;;;4.32;2.60;;;;;;;2.67;77.22;100905.03;5010822;28;20030;-60
2024/01/16 01:38:33;;;;;;;4.18;2.25;;;;;;;2.67;77.34;100910.53;5007946;28;20032;-60
2024/01/16 01:40:59;;;;;;;4.95;2.05;;;;;;;2.67;77.63;100907.78;4999130;28;20030;-60
2024/01/16 01:43:25;;;;;;;3.92;2.25;;;;;;;2.67;77.34;100920.59;4991853;28;20078;-60
2024/01/16 01:46:18;;;;;;;5.68;2.97;;;;;;;2.72;77.99;100909.91;4991401;28;20053;-60
2024/01/16 01:48:46;;;;;;;6.13;2.40;;;;;;;2.67;77.70;100921.47;4990646;28;20109;-60
2024/01/16 01:51:13;;;;;;;5.72;2.75;;;;;;;2.66;77.19;100913.44;5002073;28;20494;-60
2024/01/16 01:53:39;;;;;;;5.78;2.60;;;;;;;2.65;77.26;100923.56;5030390;28;20507;-60
2024/01/16 01:56:08;;;;;;;5.47;2.58;;;;;;;2.65;77.24;100918.09;5029739;28;20499;-60
2024/01/16 01:58:34;;;;;;;4.03;2.08;;;;;;;2.67;77.58;100929.72;5069064;28;20030;-60
2024/01/16 02:01:01;;;;;;;5.13;2.45;;;;;;;2.63;77.84;100928.41;5002976;28;20026;-60
2024/01/16 02:03:29;;;;;;;3.92;2.10;;;;;;;2.65;77.28;100936.41;4990224;28;20042;-60
2024/01/16 02:05:55;;;;;;;8.88;2.90;;;;;;;2.62;77.71;100926.69;4990314;28;20027;-59
2024/01/16 02:08:22;;;;;;;6.47;2.60;;;;;;;2.63;77.40;100933.91;4997481;28;20591;-59
2024/01/16 02:10:49;;;;;;;4.65;2.20;;;;;;;2.61;77.59;100937.88;5011486;28;20104;-60
2024/01/16 02:13:15;;;;;;;3.75;2.45;;;;;;;2.62;77.45;100934.91;5010372;28;20115;-60
2024/01/16 02:15:41;;;;;;;6.25;2.25;;;;;;;2.63;77.59;100928.41;5010339;28;20116;-59
2024/01/16 02:18:07;;;;;;;6.95;2.47;;;;;;;2.64;77.83;100930.09;5009839;28;20053;-60
2024/01/16 02:20:32;;;;;;;5.18;2.10;;;;;;;2.65;77.72;100931.78;5009708;28;20041;-60
2024/01/16 02:23:02;;;;;;;6.15;2.63;;;;;;;2.62;77.87;100929.44;5009256;28;20120;-60
2024/01/16 02:25:28;;;;;;;8.90;3.03;;;;;;;2.63;77.43;100930.28;5009457;28;20033;-60
2024/01/16 02:27:54;;;;;;;4.50;2.35;;;;;;;2.64;77.46;100930.09;5016067;28;20037;-60
2024/01/16 02:30:19;;;;;;;5.60;2.35;;;;;;;2.63;77.66;100935.75;4990753;28;20039;-60
2024/01/16 02:32:45;;;;;;;3.45;2.17;;;;;;;2.63;77.95;100936.63;5009847;28;20034;-60
2024/01/16 02:35:10;;;;;;;3.97;2.13;;;;;;;2.62;78.03;100937.66;5009556;28;20030;-60
2024/01/16 02:37:36;;;;;;;3.13;2.05;;;;;;;2.62;78.21;100937.66;5009277;28;20066;-59
2024/01/16 02:40:05;;;;;;;4.18;2.38;;;;;;;2.63;78.30;100947.59;5009530;28;20022;-60
2024/01/16 02:42:34;;;;;;;2.88;2.42;;;;;;;2.62;78.04;100937.66;5009397;28;20046;-60
2024/01/16 02:45:00;;;;;;;2.55;2.22;;;;;;;2.60;77.83;100942.50;5013543;28;20532;-59
2024/01/16 02:47:25;;;;;;;3.42;2.75;;;;;;;2.60;78.31;100933.44;5061071;28;20133;-60
2024/01/16 02:49:50;;;;;;;5.85;2.55;;;;;;;2.62;78.33;100934.06;5009235;28;20087;-60
2024/01/16 02:52:15;;;;;;;4.97;2.58;;;;;;;2.61;77.97;100933.22;5008749;28;20041;-60
2024/01/16 02:54:41;;;;;;;5.93;2.58;;;;;;;2.61;77.46;100930.50;5009133;28;20497;-59
2024/01/16 02:57:06;;;;;;;7.90;2.45;;;;;;;2.62;77.14;100929.44;5009310;28;20029;-59
2024/01/16 02:59:32;;;;;;;6.72;2.25;;;;;;;2.62;77.80;100932.19;5008749;28;20033;-60
2024/01/16 03:01:57;;;;;;;6.47;2.15;;;;;;;2.61;77.21;100937.88;5009393;28;20105;-60
2024/01/16 03:04:23;;;;;;;5.10;2.00;;;;;;;2.64;76.91;100948.44;5069915;28;20032;-60
2024/01/16 03:06:48;;;;;;;7.15;2.30;;;;;;;2.63;77.11;100944.84;5011011;28;20042;-60
2024/01/16 03:09:13;;;;;;;11.95;2.42;;;;;;;2.66;76.92;100933.47;5009765;28;20059;-59
2024/01/16 03:11:39;;;;;;;7.13;2.05;;;;;;;2.65;76.48;100934.53;5008929;28;20037;-60
2024/01/16 03:14:05;;;;;;;7.88;2.47;;;;;;;2.64;76.79;100932.84;5008511;28;20038;-59
2024/01/16 03:16:31;;;;;;;5.53;2.70;;;;;;;2.64;76.94;100930.09;5008837;28;20120;-60
2024/01/16 03:18:57;;;;;;;8.07;2.92;;;;;;;2.64;77.08;100938.31;5009145;28;20071;-60
2024/01/16 03:21:22;;;;;;;2.78;2.10;;;;;;;2.65;76.50;100934.53;5018189;28;20046;-60
2024/01/16 03:23:47;;;;;;;8.13;2.47;;;;;;;2.62;77.17;100934.91;5010748;28;20030;-60
2024/01/16 03:26:16;;;;;;;6.40;2.13;;;;;;;2.61;76.49;100938.72;4995398;28;20026;-60
2024/01/16 03:28:41;;;;;;;4.80;2.20;;;;;;;2.59;77.07;100940.78;5009575;28;20104;-59
2024/01/16 03:31:07;;;;;;;5.13;2.72;;;;;;;2.60;77.21;100938.91;5008851;28;20494;-59
2024/01/16 03:33:34;;;;;;;9.18;2.60;;;;;;;2.62;77.26;100936.81;5008056;28;20042;-59
2024/01/16 03:36:00;;;;;;;5.47;2.65;;;;;;;2.59;77.06;100934.47;5008582;28;20472;-59
2024/01/16 03:38:25;;;;;;;8.43;2.65;;;;;;;2.57;77.20;100936.56;5004531;28;20116;-59
2024/01/16 03:40:51;;;;;;;5.75;2.45;;;;;;;2.58;77.37;100930.88;5008105;28;20021;-59
2024/01/16 03:43:16;;;;;;;6.22;2.45;;;;;;;2.56;77.03;100922.03;5008556;28;20050;-60
2024/01/16 03:45:42;;;;;;;4.53;2.40;;;;;;;2.58;77.35;100917.19;5008901;28;20496;-59
2024/01/16 03:48:07;;;;;;;8.27;2.95;;;;;;;2.56;77.25;100922.03;5007647;28;20053;-59
2024/01/16 03:50:34;;;;;;;6.75;3.17;;;;;;;2.53;77.35;100913.34;5008223;28;20034;-59
2024/01/16 03:52:59;;;;;;;6.78;3.65;;;;;;;2.55;76.88;100922.22;5016956;28;20016;-59
2024/01/16 03:55:24;;;;;;;10.75;4.60;;;;;;;2.54;77.46;100912.31;5054645;28;20668;-59
2024/01/16 03:57:50;;;;;;;9.38;5.72;;;;;;;2.53;76.79;100922.41;5028354;28;20030;-59
2024/01/16 04:00:16;;;;;;;10.18;5.90;;;;;;;2.53;77.53;100913.34;5012252;28;20035;-59
2024/01/16 04:02:42;;;;;;;8.15;6.00;;;;;;;2.53;76.87;100905.97;5007709;28;20052;-59
2024/01/16 04:05:07;;;;;;;10.75;6.63;;;;;;;2.50;77.18;100903.63;5008746;28;20093;-59
2024/01/16 04:07:33;;;;;;;9.63;6.60;;;;;;;2.51;77.37;100902.56;5008741;28;20182;-59
2024/01/16 04:09:58;;;;;;;11.60;6.97;;;;;;;2.51;77.22;100905.31;5007810;28;20046;-59
2024/01/16 04:12:23;;;;;;;13.45;6.95;;;;;;;2.50;77.23;100900.88;5026382;28;20515;-60
2024/01/16 04:14:49;;;;;;;12.35;7.35;;;;;;;2.47;76.37;100895.81;5009685;28;20030;-59
2024/01/16 04:17:14;;;;;;;8.07;6.63;;;;;;;2.47;76.64;100898.53;5007696;28;20034;-59
2024/01/16 04:19:39;;;;;;;9.93;7.05;;;;;;;2.49;76.87;100887.41;5008811;28;20032;-59
2024/01/16 04:22:05;;;;;;;11.95;7.85;;;;;;;2.47;76.17;100893.06;5007816;28;20030;-59
2024/01/16 04:24:30;;;;;;;10.95;7.15;;;;;;;2.46;76.42;100889.47;5007179;28;20046;-60
2024/01/16 04:26:56;;;;;;;12.80;6.90;;;;;;;2.45;76.59;100886.94;5003767;28;20040;-60
2024/01/16 04:29:21;;;;;;;12.30;7.40;;;;;;;2.45;76.18;100878.72;5007713;28;20446;-60
2024/01/16 04:31:46;;;;;;;11.73;7.10;;;;;;;2.43;76.70;100878.06;5029417;28;20041;-59
2024/01/16 04:34:12;;;;;;;11.43;7.00;;;;;;;2.43;76.63;100880.81;5010083;28;20078;-59
2024/01/16 04:36:37;;;;;;;10.25;7.22;;;;;;;2.42;76.67;100879.97;5006624;28;20485;-60
2024/01/16 04:39:03;;;;;;;12.05;6.95;;;;;;;2.41;76.39;100881.03;5007945;28;20086;-59
2024/01/16 04:41:29;;;;;;;15.60;7.38;;;;;;;2.39;75.69;100869.41;5008130;28;20059;-59
2024/01/16 04:43:55;;;;;;;12.65;6.93;;;;;;;2.42;76.12;100879.13;5006946;28;20038;-59
2024/01/16 04:46:20;;;;;;;14.35;7.32;;;;;;;2.40;76.16;100868.38;5005692;28;20030;-59
2024/01/16 04:48:45;;;;;;;12.73;7.20;;;;;;;2.40;76.08;100881.22;5018479;28;20030;-59
2024/01/16 04:51:11;;;;;;;9.45;6.72;;;;;;;2.37;75.84;100882.47;5009896;28;20033;-60
2024/01/16 04:53:36;;;;;;;14.80;6.90;;;;;;;2.38;76.12;100889.63;5011796;28;20052;-60
2024/01/16 04:56:02;;;;;;;15.70;7.70;;;;;;;2.37;76.21;100890.69;5010952;28;20033;-60
2024/01/16 04:58:27;;;;;;;12.35;7.18;;;;;;;2.35;75.58;100881.81;5010290;28;20034;-60
2024/01/16 05:00:53;;;;;;;12.00;7.40;;;;;;;2.34;76.08;100887.50;5010679;28;20034;-60
2024/01/16 05:03:18;;;;;;;12.80;6.80;;;;;;;2.34;76.09;100882.84;5011112;28;20038;-59
2024/01/16 05:05:43;;;;;;;13.90;6.90;;;;;;;2.33;75.85;100885.81;5006899;28;20029;-60
2024/01/16 05:08:09;;;;;;;12.07;7.32;;;;;;;2.31;75.37;100879.66;5010626;28;20739;-60
2024/01/16 05:10:34;;;;;;;15.15;7.25;;;;;;;2.31;75.55;100874.19;5011580;28;20033;-60
2024/01/16 05:12:59;;;;;;;12.13;6.75;;;;;;;2.31;75.59;100871.44;5009632;28;20062;-60
2024/01/16 05:15:25;;;;;;;12.20;6.60;;;;;;;2.28;75.38;100871.84;5010648;28;20407;-60
2024/01/16 05:17:50;;;;;;;15.23;7.28;;;;;;;2.27;74.92;100861.94;5010668;28;20022;-60
2024/01/16 05:20:15;;;;;;;18.20;7.82;;;;;;;2.27;75.05;100864.69;5006467;28;20493;-60
2024/01/16 05:22:41;;;;;;;13.40;7.35;;;;;;;2.27;75.18;100864.69;5002340;28;20493;-60
2024/01/16 05:25:10;;;;;;;10.68;6.55;;;;;;;2.27;74.99;100861.94;4991419;28;20026;-60
2024/01/16 05:27:35;;;;;;;13.88;7.07;;;;;;;2.26;75.28;100860.25;5004883;28;20042;-59
2024/01/16 05:30:00;;;;;;;13.63;6.25;;;;;;;2.23;74.52;100866.97;5009971;28;20117;-59
2024/01/16 05:32:26;;;;;;;14.80;6.75;;;;;;;2.23;75.50;100861.47;5010338;28;20397;-59
2024/01/16 05:34:52;;;;;;;12.38;6.57;;;;;;;2.25;74.71;100864.03;5010113;28;20125;-59
2024/01/16 05:37:17;;;;;;;10.20;6.80;;;;;;;2.22;75.27;100860.63;5010496;28;20034;-59
2024/01/16 05:39:43;;;;;;;10.45;6.65;;;;;;;2.21;74.54;100856.22;5025520;28;20038;-59
2024/01/16 05:42:08;;;;;;;14.57;6.80;;;;;;;2.21;75.13;100858.13;5010680;28;20463;-58
2024/01/16 05:44:34;;;;;;;14.13;6.25;;;;;;;2.21;74.95;100858.97;5011050;28;20029;-60
2024/01/16 05:46:59;;;;;;;15.00;6.60;;;;;;;2.20;74.86;100859.13;5009819;28;20030;-59
2024/01/16 05:49:24;;;;;;;11.02;5.85;;;;;;;2.20;74.58;100851.78;5010645;28;20034;-60
2024/01/16 05:51:49;;;;;;;10.75;5.57;;;;;;;2.19;74.51;100851.97;5010398;28;20124;-58
2024/01/16 05:54:15;;;;;;;13.50;5.97;;;;;;;2.16;74.20;100849.63;5009529;28;20041;-58
2024/01/16 05:56:40;;;;;;;13.18;6.18;;;;;;;2.14;74.04;100849.84;5037872;28;20031;-59
2024/01/16 05:59:06;;;;;;;11.05;5.40;;;;;;;2.14;74.04;100843.50;5045938;28;20275;-59
2024/01/16 06:01:32;;;;;;;11.43;5.53;;;;;;;2.11;74.36;100843.91;5008675;28;20046;-60
2024/01/16 06:03:57;;;;;;;13.40;5.70;;;;;;;2.12;74.07;100840.13;5005760;28;20436;-59
2024/01/16 06:06:22;;;;;;;10.35;5.80;;;;;;;2.09;74.32;100844.13;5010013;28;20041;-60
2024/01/16 06:08:48;;;;;;;12.68;5.30;;;;;;;2.06;73.38;100833.56;5009700;28;20050;-60
2024/01/16 06:11:13;;;;;;;8.30;4.90;;;;;;;2.10;73.07;100850.44;5010120;28;20029;-59
2024/01/16 06:13:39;;;;;;;12.00;5.75;;;;;;;2.05;74.01;100844.72;5009733;28;20038;-60
2024/01/16 06:16:08;;;;;;;11.63;5.70;;;;;;;2.03;73.47;100839.41;5008466;28;20026;-60
2024/01/16 06:18:33;;;;;;;9.13;5.45;;;;;;;2.04;73.06;100832.88;5009985;28;20056;-59
2024/01/16 06:20:59;;;;;;;8.77;5.50;;;;;;;2.02;72.86;100837.72;5022245;28;20025;-60
2024/01/16 06:23:24;;;;;;;11.52;5.40;;;;;;;2.04;73.26;100835.63;5013899;28;20038;-60
2024/01/16 06:25:50;;;;;;;14.15;5.70;;;;;;;2.01;72.87;100833.31;5010474;28;20030;-59
2024/01/16 06:28:15;;;;;;;10.10;5.18;;;;;;;2.03;72.74;100835.84;5009641;28;20058;-59
2024/01/16 06:30:40;;;;;;;9.80;5.70;;;;;;;2.00;72.86;100844.44;5008769;28;20030;-60
2024/01/16 06:33:06;;;;;;;14.30;6.30;;;;;;;2.00;72.77;100830.75;5010288;28;20048;-60
2024/01/16 06:35:31;;;;;;;8.55;4.88;;;;;;;2.00;72.44;100839.81;5009511;28;20037;-60
2024/01/16 06:37:56;;;;;;;11.77;5.55;;;;;;;1.98;72.71;100836.44;5018043;28;20034;-59
2024/01/16 06:40:22;;;;;;;12.20;5.15;;;;;;;1.97;72.44;100842.97;5005247;28;20034;-59
2024/01/16 06:42:47;;;;;;;9.93;4.78;;;;;;;1.94;72.30;100838.72;5010191;28;20464;-59
2024/01/16 06:45:13;;;;;;;9.95;5.07;;;;;;;1.93;71.58;100841.66;5017662;28;20057;-59
2024/01/16 06:47:38;;;;;;;10.38;5.18;;;;;;;1.93;72.47;100844.41;5004268;28;20034;-59
2024/01/16 06:50:04;;;;;;;9.85;5.40;;;;;;;1.94;72.21;100844.19;5008642;28;20116;-59
2024/01/16 06:52:30;;;;;;;10.60;4.85;;;;;;;1.93;71.48;100844.41;5002265;28;20457;-59
2024/01/16 06:54:55;;;;;;;13.52;5.38;;;;;;;1.92;71.95;100845.41;5007583;28;20026;-60
2024/01/16 06:57:21;;;;;;;9.20;4.57;;;;;;;1.92;72.21;100843.53;5008752;28;20108;-59
2024/01/16 06:59:46;;;;;;;7.07;4.72;;;;;;;1.93;71.69;100849.88;5012984;28;20129;-59
2024/01/16 07:02:11;;;;;;;9.98;4.88;;;;;;;1.90;71.47;100850.25;5009301;28;20377;-59
2024/01/16 07:04:37;;;;;;;10.63;5.50;;;;;;;1.92;71.06;100848.16;5008279;28;20061;-59
2024/01/16 07:07:02;;;;;;;8.07;4.60;;;;;;;1.92;71.14;100850.91;5009192;28;20384;-59
2024/01/16 07:09:29;;;;;;;10.70;5.35;;;;;;;1.92;71.62;100856.38;5009335;28;20049;-60
2024/01/16 07:11:54;;;;;;;7.78;5.30;;;;;;;1.87;71.54;100865.16;5007560;28;20034;-59
2024/01/16 07:14:19;;;;;;;8.93;4.47;;;;;;;1.90;71.12;100858.47;5009059;28;20034;-60
2024/01/16 07:16:45;;;;;;;11.35;4.82;;;;;;;1.81;71.33;100865.97;4999550;28;20362;-60
2024/01/16 07:19:11;;;;;;;9.15;5.00;;;;;;;1.81;71.09;100865.09;5015090;28;20053;-60
2024/01/16 07:21:37;;;;;;;9.75;4.75;;;;;;;1.82;70.96;100873.13;5011063;28;20378;-59
2024/01/16 07:24:02;;;;;;;11.68;5.00;;;;;;;1.82;71.35;100872.28;4999284;28;20102;-59
2024/01/16 07:26:28;;;;;;;11.02;5.40;;;;;;;1.81;71.51;100870.56;5073810;28;20031;-59
2024/01/16 07:28:54;;;;;;;8.77;4.80;;;;;;;1.83;71.01;100868.50;5042418;28;20025;-59
2024/01/16 07:31:19;;;;;;;11.18;4.78;;;;;;;1.85;71.07;100864.53;5022149;28;20378;-59
2024/01/16 07:33:45;;;;;;;7.55;5.20;;;;;;;1.84;71.46;100864.72;5004167;28;20504;-59
2024/01/16 07:36:11;;;;;;;11.95;5.70;;;;;;;1.85;70.77;100872.75;5009111;28;20033;-60
2024/01/16 07:38:37;;;;;;;12.57;4.93;;;;;;;1.85;70.96;100867.28;5015561;28;20030;-60
2024/01/16 07:41:03;;;;;;;8.10;4.68;;;;;;;1.85;70.92;100874.66;5020134;28;20030;-61
2024/01/16 07:43:31;;;;;;;11.00;5.05;;;;;;;1.83;70.65;100865.75;5016759;28;20045;-60
2024/01/16 07:45:56;;;;;;;8.98;5.30;;;;;;;1.83;70.29;100873.97;5015663;28;20086;-60
2024/01/16 07:48:22;;;;;;;12.35;5.15;;;;;;;1.83;70.42;100871.25;5009547;28;20113;-61
2024/01/16 07:50:48;;;;;;;12.40;5.22;;;;;;;1.81;70.75;100878.78;5011635;28;20557;-62
2024/01/16 07:53:15;;;;;;;14.27;5.15;;;;;;;1.80;70.82;100886.16;5011857;28;20175;-62
2024/01/16 07:55:40;;;;;;;10.95;5.53;;;;;;;1.81;71.08;100879.66;5011972;28;20070;-60
2024/01/16 07:58:06;;;;;;;8.18;4.90;;;;;;;1.79;70.59;100894.56;5003054;28;20034;-61
2024/01/16 08:00:31;;;;;;;10.00;5.18;;;;;;;1.80;70.63;100888.88;5000941;28;20033;-62
2024/01/16 08:02:56;;;;;;;5.88;4.75;;;;;;;1.80;70.40;100896.25;5036548;28;20035;-61
2024/01/16 08:05:25;;;;;;;9.50;5.38;;;;;;;1.80;69.96;100897.09;5020733;28;20027;-62
2024/01/16 08:07:51;;;;;;;8.70;5.30;;;;;;;1.78;70.33;100896.47;5003839;28;20026;-62
2024/01/16 08:10:16;;;;;;;10.35;5.30;;;;;;;1.80;70.61;100893.50;5004433;28;20485;-61
2024/01/16 08:12:41;;;;;;;10.02;5.45;;;;;;;1.80;70.49;100896.25;5004147;28;20075;-62
2024/01/16 08:15:07;;;;;;;8.50;4.97;;;;;;;1.84;70.63;100897.56;5003184;28;20094;-61
2024/01/16 08:17:33;;;;;;;10.20;5.00;;;;;;;1.83;70.38;100893.97;5004095;28;20116;-61
2024/01/16 08:19:59;;;;;;;8.63;5.47;;;;;;;1.82;70.42;100885.97;5004712;28;20045;-61
2024/01/16 08:22:24;;;;;;;9.27;5.53;;;;;;;1.80;69.65;100891.63;4998033;28;20419;-61
2024/01/16 08:24:49;;;;;;;11.65;5.85;;;;;;;1.83;70.34;100890.41;4994663;28;20038;-62
2024/01/16 08:27:16;;;;;;;12.25;6.60;;;;;;;1.82;69.55;100895.03;5008844;28;20029;-61
2024/01/16 08:29:41;;;;;;;19.40;17.60;;;;;;;1.83;71.08;100901.34;5009205;28;20034;-62
2024/01/16 08:32:06;;;;;;;14.07;9.50;;;;;;;1.83;70.20;100902.19;5010800;28;20071;-62
2024/01/16 08:34:32;;;;;;;10.63;6.10;;;;;;;1.81;69.87;100906.16;5017695;28;20033;-62
2024/01/16 08:36:57;;;;;;;9.98;6.13;;;;;;;1.83;69.78;100902.19;5015920;28;20026;-61
2024/01/16 08:39:23;;;;;;;10.23;5.40;;;;;;;1.83;69.87;100909.56;5011984;28;20037;-62
2024/01/16 08:41:49;;;;;;;9.27;5.93;;;;;;;1.86;70.68;100912.75;5011366;28;20121;-62
2024/01/16 08:44:14;;;;;;;10.50;6.72;;;;;;;1.88;70.29;100907.06;5035555;28;20395;-65
2024/01/16 08:46:40;;;;;;;15.85;7.28;;;;;;;1.85;69.65;100894.66;5011375;28;20049;-62
2024/01/16 08:49:05;;;;;;;13.63;6.15;;;;;;;1.83;70.44;100899.44;5013443;28;20037;-62
2024/01/16 08:51:30;;;;;;;14.80;6.10;;;;;;;1.83;69.89;100898.59;5011324;28;20527;-62
2024/01/16 08:53:56;;;;;;;8.23;5.40;;;;;;;1.84;69.40;100898.41;5011756;28;20069;-62
2024/01/16 08:56:21;;;;;;;8.77;5.47;;;;;;;1.81;69.80;100904.28;5008790;28;20030;-62
2024/01/16 08:58:47;;;;;;;8.88;5.45;;;;;;;1.85;69.68;100900.13;5009414;28;20037;-61
2024/01/16 09:01:12;;;;;;;10.25;5.60;;;;;;;1.86;69.40;100901.81;5014321;28;20098;-61
2024/01/16 09:03:37;;;;;;;7.53;4.97;;;;;;;1.88;70.10;100907.06;5026705;28;20057;-61
2024/01/16 09:06:03;;;;;;;10.07;5.65;;;;;;;1.85;69.71;100900.13;5099094;28;20388;-61
2024/01/16 09:08:29;;;;;;;9.32;5.40;;;;;;;1.85;69.38;100902.00;5058511;28;20027;-61
2024/01/16 09:10:54;;;;;;;14.55;5.78;;;;;;;1.87;69.60;100902.66;5070687;28;20018;-61
2024/01/16 09:13:20;;;;;;;8.10;5.40;;;;;;;1.87;69.68;100897.19;5088402;28;20020;-61
2024/01/16 09:15:47;;;;;;;8.25;5.00;;;;;;;1.88;69.17;100902.44;5044441;28;20503;-61
2024/01/16 09:18:12;;;;;;;11.38;5.60;;;;;;;1.88;69.25;100901.59;5032913;28;20037;-61
2024/01/16 09:20:38;;;;;;;13.10;5.60;;;;;;;1.87;69.36;100894.44;5064070;28;20531;-61
2024/01/16 09:23:03;;;;;;;9.48;5.40;;;;;;;1.91;68.75;100904.78;5063648;28;20029;-61
2024/01/16 09:25:29;;;;;;;8.73;5.45;;;;;;;1.92;69.21;100895.53;5009649;28;20026;-61
2024/01/16 09:27:55;;;;;;;9.00;5.90;;;;;;;1.89;69.69;100889.63;5010932;28;20030;-61
2024/01/16 09:30:22;;;;;;;11.35;5.55;;;;;;;1.92;69.08;100900.16;5010580;28;20022;-61
2024/01/16 09:32:48;;;;;;;11.02;5.13;;;;;;;1.92;69.60;100894.69;5009035;28;20499;-61
2024/01/16 09:35:13;;;;;;;6.50;4.88;;;;;;;1.93;68.95;100882.72;5009585;28;20055;-62
2024/01/16 09:37:39;;;;;;;10.48;5.72;;;;;;;1.94;69.10;100884.41;5010218;28;20120;-62
2024/01/16 09:40:08;;;;;;;13.65;6.18;;;;;;;1.96;68.94;100880.44;5069390;28;20368;-62
2024/01/16 09:42:34;;;;;;;10.45;6.05;;;;;;;1.99;68.57;100886.56;5009786;28;20046;-62
2024/01/16 09:45:02;;;;;;;10.98;5.35;;;;;;;2.01;69.08;100879.84;5010697;28;20030;-62
2024/01/16 09:47:30;;;;;;;11.40;6.22;;;;;;;2.03;69.00;100898.81;5009743;28;20026;-62
2024/01/16 09:49:57;;;;;;;12.13;5.68;;;;;;;2.04;68.81;100893.13;5010143;28;20030;-62
2024/01/16 09:52:22;;;;;;;8.43;5.65;;;;;;;2.05;68.17;100886.63;5010231;28;20095;-62
2024/01/16 09:54:48;;;;;;;9.93;5.63;;;;;;;2.06;68.42;100899.25;5008669;28;20042;-62
2024/01/16 09:57:18;;;;;;;12.20;5.78;;;;;;;2.09;68.11;100878.88;5011646;28;20037;-62
2024/01/16 09:59:43;;;;;;;10.00;5.47;;;;;;;2.13;68.34;100881.00;5056405;28;20045;-62
2024/01/16 10:02:10;;;;;;;9.05;5.70;;;;;;;2.16;68.65;100875.16;4989923;28;20034;-62
2024/01/16 10:04:36;;;;;;;10.88;6.15;;;;;;;2.20;68.31;100870.09;4990075;28;20033;-62
2024/01/16 10:07:02;;;;;;;10.80;6.38;;;;;;;2.25;67.61;100872.25;4989718;28;20388;-62
2024/01/16 10:09:27;;;;;;;8.98;6.13;;;;;;;2.31;67.66;100876.94;4990781;28;20038;-62
2024/01/16 10:11:54;;;;;;;9.57;6.32;;;;;;;2.33;68.15;100874.84;4990122;28;20030;-62
2024/01/16 10:14:19;;;;;;;9.43;5.90;;;;;;;2.41;67.99;100878.28;4989656;28;20065;-62
2024/01/16 10:17:14;;;;;;;10.90;6.32;;;;;;;2.53;68.09;100873.09;4989901;28;20058;-61
2024/01/16 10:19:53;;;;;;;11.77;6.80;;;;;;;2.63;68.12;100862.66;4988954;28;20477;-62
2024/01/16 10:22:24;;;;;;;9.32;6.20;;;;;;;2.76;67.44;100869.25;5010479;28;20113;-62
2024/01/16 10:24:49;;;;;;;9.73;5.75;;;;;;;2.90;67.27;100860.03;4990150;28;20046;-62
2024/01/16 10:27:17;;;;;;;8.77;6.05;;;;;;;3.03;66.57;100856.53;4990351;28;20023;-62
2024/01/16 10:29:56;;;;;;;8.77;6.15;;;;;;;3.16;66.81;100860.16;4989635;28;20026;-62
2024/01/16 10:32:35;;;;;;;9.00;5.80;;;;;;;3.27;66.37;100855.16;4990263;28;20470;-62
2024/01/16 10:35:20;;;;;;;10.57;5.80;;;;;;;3.35;66.78;100844.84;4990583;28;20496;-62
2024/01/16 10:37:49;;;;;;;11.38;6.60;;;;;;;3.40;65.87;100838.75;4992288;28;20038;-62
2024/01/16 10:40:20;;;;;;;10.85;6.15;;;;;;;3.47;65.42;100842.34;5025729;28;20107;-62
2024/01/16 10:42:46;;;;;;;9.73;6.55;;;;;;;3.54;65.86;100835.00;5008789;28;20102;-62
2024/01/16 10:45:19;;;;;;;8.05;5.65;;;;;;;3.65;65.70;100842.59;5009965;28;20495;-62
2024/01/16 10:47:46;;;;;;;12.55;6.30;;;;;;;3.72;64.92;100841.78;5008699;28;20481;-62
2024/01/16 10:50:11;;;;;;;8.80;5.75;;;;;;;3.79;65.05;100843.47;5009402;28;20022;-62
2024/01/16 10:52:47;;;;;;;10.57;5.90;;;;;;;3.87;64.90;100850.66;5009368;28;20036;-62
2024/01/16 10:55:21;;;;;;;13.02;6.05;;;;;;;3.91;64.64;100843.69;5025013;28;20029;-62
2024/01/16 10:57:48;;;;;;;11.07;5.50;;;;;;;3.96;64.27;100832.91;4989216;28;20030;-62
2024/01/16 11:00:16;;;;;;;7.47;5.25;;;;;;;4.01;64.31;100824.91;4990008;28;20031;-62
2024/01/16 11:02:58;;;;;;;12.20;6.22;;;;;;;4.04;64.32;100821.72;4989300;28;20039;-62
2024/01/16 11:05:24;;;;;;;9.18;5.50;;;;;;;4.09;63.38;100821.13;4989022;28;20084;-62
2024/01/16 11:07:50;;;;;;;8.60;5.40;;;;;;;4.12;63.60;100817.91;4989295;28;20030;-62
2024/01/16 11:10:17;;;;;;;8.25;5.25;;;;;;;4.14;63.90;100822.16;4990878;28;20048;-62
2024/01/16 11:12:44;;;;;;;10.43;5.30;;;;;;;4.15;62.60;100818.34;5007748;28;20054;-62
2024/01/16 11:15:12;;;;;;;10.63;5.75;;;;;;;4.16;63.17;100814.53;5008677;28;20029;-62
2024/01/16 11:17:39;;;;;;;6.85;5.38;;;;;;;4.16;62.91;100811.78;5005021;28;20101;-63
2024/01/16 11:20:09;;;;;;;11.77;5.95;;;;;;;4.19;63.43;100811.38;5007800;28;20033;-62
2024/01/16 11:22:38;;;;;;;10.60;5.38;;;;;;;4.18;63.39;100808.84;5005676;28;20030;-62
2024/01/16 11:25:17;;;;;;;10.75;6.80;;;;;;;4.22;63.02;100812.84;4996608;28;20052;-62